createdAt,value
2023-05-11T00:01:15.759Z,16.59
2023-05-11T00:03:42.700Z,16.63
2023-05-11T00:06:09.378Z,16.38
2023-05-11T00:08:36.245Z,16.22
2023-05-11T00:11:02.817Z,16.08
2023-05-11T00:13:29.441Z,16.13
2023-05-11T00:15:56.045Z,16.35
2023-05-11T00:18:22.794Z,16.32
2023-05-11T00:20:49.510Z,16.35
2023-05-11T00:23:16.269Z,16.14
2023-05-11T00:25:42.816Z,15.98
2023-05-11T00:28:12.491Z,15.89
2023-05-11T00:30:40.028Z,15.93
2023-05-11T00:33:06.660Z,15.87
2023-05-11T00:35:33.284Z,15.85
2023-05-11T00:37:59.863Z,15.78
2023-05-11T00:40:26.513Z,15.51
2023-05-11T00:42:53.108Z,15.61
2023-05-11T00:45:19.807Z,15.82
2023-05-11T00:47:46.713Z,15.77
2023-05-11T00:50:15.982Z,15.53
2023-05-11T00:52:43.376Z,15.90
2023-05-11T00:55:10.252Z,15.89
2023-05-11T00:57:38.002Z,16.32
2023-05-11T01:00:04.892Z,16.23
2023-05-11T01:02:31.808Z,16.18
2023-05-11T01:04:58.574Z,16.04
2023-05-11T01:07:40.857Z,15.99
2023-05-11T01:10:26.410Z,15.73
2023-05-11T01:12:58.418Z,15.52
2023-05-11T01:15:36.943Z,15.49
2023-05-11T01:18:07.011Z,15.62
2023-05-11T01:20:34.844Z,15.82
2023-05-11T01:23:20.303Z,15.69
2023-05-11T01:25:56.910Z,15.60
2023-05-11T01:28:48.368Z,15.89
2023-05-11T01:31:16.134Z,16.07
2023-05-11T01:33:55.463Z,15.79
2023-05-11T01:36:25.348Z,15.78
2023-05-11T01:38:52.720Z,15.48
2023-05-11T01:41:22.480Z,15.98
2023-05-11T01:43:58.303Z,16.06
2023-05-11T01:46:30.743Z,16.08
2023-05-11T01:48:59.485Z,15.82
2023-05-11T01:51:27.609Z,15.68
2023-05-11T01:53:54.730Z,15.53
2023-05-11T01:56:22.421Z,15.51
2023-05-11T01:58:50.286Z,15.43
2023-05-11T02:01:18.558Z,15.48
2023-05-11T02:03:48.460Z,15.40
2023-05-11T02:06:18.162Z,15.43
2023-05-11T02:08:47.398Z,15.21
2023-05-11T02:11:15.647Z,15.22
2023-05-11T02:13:43.541Z,15.18
2023-05-11T02:16:11.007Z,15.33
2023-05-11T02:18:40.858Z,15.38
2023-05-11T02:21:11.256Z,15.18
2023-05-11T02:23:39.221Z,15.13
2023-05-11T02:26:08.519Z,15.30
2023-05-11T02:28:38.255Z,15.26
2023-05-11T02:31:09.543Z,15.33
2023-05-11T02:33:52.503Z,15.27
2023-05-11T02:36:21.469Z,15.11
2023-05-11T02:38:50.562Z,15.10
2023-05-11T02:41:21.612Z,15.09
2023-05-11T02:43:51.197Z,15.17
2023-05-11T02:46:20.416Z,15.08
2023-05-11T02:48:54.728Z,14.88
2023-05-11T02:51:26.580Z,14.78
2023-05-11T02:53:55.028Z,15.13
2023-05-11T02:56:23.421Z,15.06
2023-05-11T02:58:52.000Z,14.88
2023-05-11T03:01:24.603Z,14.96
2023-05-11T03:03:54.343Z,15.00
2023-05-11T03:06:22.505Z,15.02
2023-05-11T03:08:49.230Z,15.08
2023-05-11T03:11:17.930Z,15.23
2023-05-11T03:13:46.732Z,15.26
2023-05-11T03:16:20.422Z,15.25
2023-05-11T03:18:49.243Z,15.34
2023-05-11T03:21:21.460Z,15.21
2023-05-11T03:23:49.558Z,15.29
2023-05-11T03:26:17.706Z,15.46
2023-05-11T03:28:46.122Z,15.46
2023-05-11T03:31:12.814Z,15.58
2023-05-11T03:33:39.729Z,16.04
2023-05-11T03:36:09.139Z,16.00
2023-05-11T03:38:36.608Z,15.85
2023-05-11T03:41:03.382Z,15.53
2023-05-11T03:43:38.393Z,15.53
2023-05-11T03:46:11.886Z,15.55
2023-05-11T03:48:39.810Z,15.98
2023-05-11T03:51:06.675Z,16.14
2023-05-11T03:53:39.010Z,16.18
2023-05-11T03:56:08.769Z,16.25
2023-05-11T03:58:41.586Z,16.25
2023-05-11T04:01:11.038Z,16.14
2023-05-11T04:03:48.709Z,16.18
2023-05-11T04:06:16.262Z,16.11
2023-05-11T04:08:43.339Z,16.13
2023-05-11T04:11:10.015Z,16.02
2023-05-11T04:13:36.763Z,16.03
2023-05-11T04:16:04.808Z,15.92
2023-05-11T04:18:31.494Z,15.85
2023-05-11T04:20:58.801Z,16.17
2023-05-11T04:23:26.468Z,16.29
2023-05-11T04:25:54.039Z,16.29
2023-05-11T04:28:22.162Z,16.33
2023-05-11T04:30:54.639Z,16.16
2023-05-11T04:33:21.604Z,16.08
2023-05-11T04:35:51.841Z,15.87
2023-05-11T04:38:19.210Z,15.91
2023-05-11T04:40:45.832Z,15.78
2023-05-11T04:43:12.486Z,15.88
2023-05-11T04:45:39.088Z,16.00
2023-05-11T04:48:06.662Z,16.12
2023-05-11T04:50:36.229Z,16.04
2023-05-11T04:53:03.959Z,15.91
2023-05-11T04:55:30.928Z,15.98
2023-05-11T04:57:59.406Z,16.00
2023-05-11T05:00:26.046Z,15.90
2023-05-11T05:02:55.113Z,15.52
2023-05-11T05:05:24.784Z,15.86
2023-05-11T05:07:51.422Z,15.93
2023-05-11T05:10:20.421Z,15.77
2023-05-11T05:12:47.089Z,16.17
2023-05-11T05:15:14.571Z,16.21
2023-05-11T05:17:41.303Z,16.09
2023-05-11T05:20:09.628Z,16.09
2023-05-11T05:22:36.292Z,16.31
2023-05-11T05:25:03.033Z,16.55
2023-05-11T05:27:30.793Z,16.25
2023-05-11T05:29:59.991Z,16.41
2023-05-11T05:32:29.957Z,16.49
2023-05-11T05:34:56.682Z,16.69
2023-05-11T05:37:33.617Z,16.67
2023-05-11T05:40:02.673Z,16.64
2023-05-11T05:42:32.384Z,16.40
2023-05-11T05:44:59.453Z,16.16
2023-05-11T05:47:26.266Z,16.18
2023-05-11T05:49:52.850Z,16.62
2023-05-11T05:52:19.319Z,16.64
2023-05-11T05:54:47.636Z,16.45
2023-05-11T05:57:15.790Z,16.49
2023-05-11T05:59:44.292Z,16.35
2023-05-11T06:02:13.482Z,16.53
2023-05-11T06:04:42.009Z,16.71
2023-05-11T06:07:09.084Z,16.69
2023-05-11T06:09:39.047Z,16.47
2023-05-11T06:12:06.261Z,16.70
2023-05-11T06:14:35.586Z,16.82
2023-05-11T06:17:04.902Z,16.72
2023-05-11T06:19:31.713Z,16.44
2023-05-11T06:21:58.940Z,16.61
2023-05-11T06:24:25.639Z,16.44
2023-05-11T06:26:52.430Z,16.49
2023-05-11T06:29:20.912Z,16.56
2023-05-11T06:31:54.804Z,16.74
2023-05-11T06:34:22.521Z,16.59
2023-05-11T06:36:58.639Z,16.81
2023-05-11T06:39:25.380Z,16.75
2023-05-11T06:41:56.678Z,16.88
2023-05-11T06:44:26.532Z,17.10
2023-05-11T06:46:53.904Z,17.00
2023-05-11T06:49:21.603Z,17.01
2023-05-11T06:51:48.168Z,17.15
2023-05-11T06:54:14.831Z,17.20
2023-05-11T06:56:41.681Z,17.22
2023-05-11T06:59:08.291Z,17.26
2023-05-11T07:01:38.652Z,17.39
2023-05-11T07:04:05.471Z,17.37
2023-05-11T07:06:33.715Z,17.39
2023-05-11T07:09:00.369Z,17.23
2023-05-11T07:11:27.833Z,17.33
2023-05-11T07:13:54.556Z,17.04
2023-05-11T07:16:21.307Z,17.30
2023-05-11T07:18:48.048Z,17.17
2023-05-11T07:21:14.824Z,17.03
2023-05-11T07:23:41.896Z,16.98
2023-05-11T07:26:09.395Z,17.23
2023-05-11T07:28:36.657Z,17.32
2023-05-11T07:31:09.191Z,17.27
2023-05-11T07:33:37.362Z,17.60
2023-05-11T07:36:03.899Z,17.73
2023-05-11T07:38:30.564Z,17.81
2023-05-11T07:40:57.212Z,17.50
2023-05-11T07:43:23.895Z,17.55
2023-05-11T07:45:53.596Z,17.58
2023-05-11T07:48:20.919Z,17.51
2023-05-11T07:50:47.532Z,17.73
2023-05-11T07:53:14.165Z,17.90
2023-05-11T07:55:40.877Z,18.03
2023-05-11T07:58:08.497Z,17.84
2023-05-11T08:00:35.365Z,17.67
2023-05-11T08:03:02.183Z,17.68
2023-05-11T08:05:32.843Z,17.74
2023-05-11T08:07:59.770Z,18.06
2023-05-11T08:10:26.291Z,18.01
2023-05-11T08:12:52.875Z,17.94
2023-05-11T08:15:22.256Z,18.20
2023-05-11T08:17:49.300Z,18.37
2023-05-11T08:20:15.991Z,18.26
2023-05-11T08:22:42.595Z,18.55
2023-05-11T08:25:11.424Z,18.24
2023-05-11T08:27:38.069Z,18.20
2023-05-11T08:30:04.885Z,17.96
2023-05-11T08:32:31.549Z,18.15
2023-05-11T08:34:58.231Z,18.10
2023-05-11T08:37:24.907Z,17.89
2023-05-11T08:39:51.739Z,18.17
2023-05-11T08:42:19.051Z,18.25
2023-05-11T08:44:46.984Z,18.31
2023-05-11T08:49:43.243Z,18.68
2023-05-11T08:52:10.807Z,18.58
2023-05-11T08:54:37.408Z,18.60
2023-05-11T08:57:04.536Z,18.65
2023-05-11T08:59:31.234Z,18.65
2023-05-11T09:02:01.177Z,19.03
2023-05-11T09:04:28.064Z,19.16
2023-05-11T09:06:54.982Z,19.28
2023-05-11T09:09:21.728Z,19.37
2023-05-11T09:11:48.343Z,19.06
2023-05-11T09:14:15.293Z,19.49
2023-05-11T09:16:41.979Z,19.47
2023-05-11T09:19:16.605Z,19.89
2023-05-11T09:21:43.329Z,19.86
2023-05-11T09:24:13.323Z,20.31
2023-05-11T09:26:40.332Z,20.28
2023-05-11T09:29:07.051Z,20.62
2023-05-11T09:31:37.344Z,20.72
2023-05-11T09:34:14.350Z,20.43
2023-05-11T09:36:41.550Z,20.94
2023-05-11T09:39:08.218Z,20.67
2023-05-11T09:41:37.833Z,20.46
2023-05-11T09:44:14.032Z,20.77
2023-05-11T09:46:41.873Z,20.73
2023-05-11T09:49:09.005Z,20.86
2023-05-11T09:51:40.545Z,20.95
2023-05-11T09:54:20.323Z,20.84
2023-05-11T09:56:53.422Z,20.74
2023-05-11T09:59:39.705Z,20.51
2023-05-11T10:02:20.725Z,20.59
2023-05-11T10:04:48.502Z,20.78
2023-05-11T10:07:24.049Z,20.81
2023-05-11T10:09:52.336Z,20.78
2023-05-11T10:12:21.284Z,20.94
2023-05-11T10:14:49.446Z,21.22
2023-05-11T10:17:16.302Z,21.03
2023-05-11T10:19:43.045Z,21.02
2023-05-11T10:22:17.521Z,21.30
2023-05-11T10:24:45.748Z,21.26
2023-05-11T10:27:13.202Z,21.48
2023-05-11T10:29:40.056Z,21.21
2023-05-11T10:32:14.923Z,21.30
2023-05-11T10:34:42.062Z,21.40
2023-05-11T10:37:09.293Z,21.29
2023-05-11T10:39:43.018Z,21.31
2023-05-11T10:42:21.622Z,21.46
2023-05-11T10:44:57.114Z,21.32
2023-05-11T10:47:42.599Z,21.53
2023-05-11T10:50:30.222Z,21.63
2023-05-11T10:53:11.864Z,21.17
2023-05-11T10:56:06.294Z,21.46
2023-05-11T10:58:54.769Z,21.77
2023-05-11T11:01:27.106Z,21.57
2023-05-11T11:04:04.296Z,22.28
2023-05-11T11:06:40.694Z,22.77
2023-05-11T11:09:08.863Z,22.88
2023-05-11T11:11:39.984Z,23.16
2023-05-11T11:14:09.526Z,23.30
2023-05-11T11:16:40.276Z,22.93
2023-05-11T11:19:25.720Z,23.30
2023-05-11T11:21:52.317Z,22.25
2023-05-11T11:24:34.163Z,22.16
2023-05-11T11:27:03.115Z,21.98
2023-05-11T11:29:30.429Z,22.17
2023-05-11T11:32:16.992Z,21.64
2023-05-11T11:34:44.145Z,21.46
2023-05-11T11:37:10.708Z,21.48
2023-05-11T11:39:43.583Z,20.88
2023-05-11T11:42:10.229Z,21.39
2023-05-11T11:44:44.530Z,20.94
2023-05-11T11:47:14.254Z,21.17
2023-05-11T11:49:43.695Z,21.62
2023-05-11T11:52:13.804Z,21.59
2023-05-11T11:54:44.819Z,21.45
2023-05-11T11:57:29.894Z,21.41
2023-05-11T11:59:56.580Z,21.02
2023-05-11T12:02:23.451Z,21.09
2023-05-11T12:05:10.805Z,21.45
2023-05-11T12:07:42.334Z,21.49
2023-05-11T12:10:11.358Z,21.59
2023-05-11T12:12:38.515Z,21.62
2023-05-11T12:15:07.189Z,21.79
2023-05-11T12:17:37.941Z,22.01
2023-05-11T12:20:12.176Z,21.95
2023-05-11T12:22:38.777Z,22.11
2023-05-11T12:25:06.530Z,22.41
2023-05-11T12:27:33.126Z,22.85
2023-05-11T12:30:00.384Z,23.31
2023-05-11T12:32:30.767Z,23.27
2023-05-11T12:34:58.545Z,23.02
2023-05-11T12:37:25.549Z,23.56
2023-05-11T12:39:58.636Z,23.57
2023-05-11T12:42:25.973Z,23.65
2023-05-11T12:44:53.361Z,24.06
2023-05-11T12:47:20.114Z,24.60
2023-05-11T12:49:46.844Z,24.98
2023-05-11T12:52:13.666Z,25.22
2023-05-11T12:54:41.734Z,24.99
2023-05-11T12:57:09.263Z,24.47
2023-05-11T12:59:37.721Z,25.22
2023-05-11T13:02:08.610Z,25.96
2023-05-11T13:04:35.640Z,26.31
2023-05-11T13:07:02.256Z,26.77
2023-05-11T13:09:28.958Z,26.28
2023-05-11T13:12:07.622Z,25.54
2023-05-11T13:14:34.576Z,24.81
2023-05-11T13:17:01.098Z,24.59
2023-05-11T13:19:34.830Z,24.43
2023-05-11T13:22:01.494Z,24.03
2023-05-11T13:24:28.119Z,23.50
2023-05-11T13:26:55.824Z,23.54
2023-05-11T13:29:22.476Z,23.29
2023-05-11T13:31:50.066Z,23.88
2023-05-11T13:34:16.955Z,24.43
2023-05-11T13:36:43.629Z,25.32
2023-05-11T13:39:10.297Z,25.35
2023-05-11T13:41:36.990Z,25.27
2023-05-11T13:44:03.606Z,25.79
2023-05-11T13:46:30.225Z,25.26
2023-05-11T13:48:58.271Z,25.27
2023-05-11T13:51:24.889Z,25.15
2023-05-11T13:53:51.685Z,24.76
2023-05-11T13:56:19.685Z,25.81
2023-05-11T13:58:46.374Z,26.58
2023-05-11T14:01:13.074Z,27.24
2023-05-11T14:03:39.695Z,28.06
2023-05-11T14:06:06.506Z,28.10
2023-05-11T14:08:33.027Z,28.12
2023-05-11T14:10:59.711Z,28.13
2023-05-11T14:13:27.280Z,27.59
2023-05-11T14:15:53.961Z,27.61
2023-05-11T14:18:20.722Z,26.95
2023-05-11T14:20:47.751Z,27.33
2023-05-11T14:23:14.299Z,27.47
2023-05-11T14:25:40.994Z,26.95
2023-05-11T14:28:07.666Z,26.98
2023-05-11T14:30:34.362Z,26.81
2023-05-11T14:33:01.098Z,26.57
2023-05-11T14:35:27.753Z,26.30
2023-05-11T14:37:54.806Z,25.79
2023-05-11T14:40:21.501Z,26.08
2023-05-11T14:42:49.158Z,26.34
2023-05-11T14:45:16.688Z,27.11
2023-05-11T14:47:43.347Z,27.36
2023-05-11T14:50:10.191Z,27.41
2023-05-11T14:52:36.796Z,26.81
2023-05-11T14:55:03.562Z,26.50
2023-05-11T14:57:30.229Z,26.51
2023-05-11T15:00:00.162Z,26.12
2023-05-11T15:02:28.832Z,25.66
2023-05-11T15:04:55.636Z,25.34
2023-05-11T15:07:22.227Z,25.34
2023-05-11T15:09:50.770Z,25.66
2023-05-11T15:12:17.337Z,24.91
2023-05-11T15:14:43.892Z,25.44
2023-05-11T15:17:10.563Z,25.93
2023-05-11T15:19:37.211Z,26.17
2023-05-11T15:22:03.925Z,25.52
2023-05-11T15:24:30.470Z,25.44
2023-05-11T15:26:58.010Z,24.93
2023-05-11T15:29:25.214Z,24.95
2023-05-11T15:31:52.010Z,25.64
2023-05-11T15:34:18.564Z,26.04
2023-05-11T15:36:48.546Z,25.78
2023-05-11T15:39:18.589Z,25.60
2023-05-11T15:41:45.698Z,26.16
2023-05-11T15:44:13.377Z,26.20
2023-05-11T15:46:40.103Z,25.76
2023-05-11T15:49:06.688Z,25.60
2023-05-11T15:51:33.368Z,25.16
2023-05-11T15:53:59.974Z,25.11
2023-05-11T15:56:27.013Z,24.77
2023-05-11T15:58:53.585Z,24.67
2023-05-11T16:01:20.298Z,24.46
2023-05-11T16:03:47.006Z,24.33
2023-05-11T16:06:13.783Z,23.95
2023-05-11T16:08:43.988Z,24.36
2023-05-11T16:11:10.580Z,24.56
2023-05-11T16:13:37.136Z,24.21
2023-05-11T16:16:03.813Z,23.82
2023-05-11T16:18:30.498Z,23.79
2023-05-11T16:20:57.578Z,23.28
2023-05-11T16:23:25.501Z,23.56
2023-05-11T16:25:52.374Z,22.95
2023-05-11T16:28:19.096Z,21.91
2023-05-11T16:30:46.134Z,21.97
2023-05-11T16:33:12.714Z,21.29
2023-05-11T16:35:39.483Z,20.82
2023-05-11T16:38:06.269Z,21.40
2023-05-11T16:40:33.060Z,21.23
2023-05-11T16:42:59.604Z,20.20
2023-05-11T16:45:26.311Z,20.25
2023-05-11T16:47:52.875Z,19.32
2023-05-11T16:50:19.870Z,19.92
2023-05-11T16:52:48.724Z,19.53
2023-05-11T16:55:16.093Z,19.57
2023-05-11T16:57:43.959Z,19.38
2023-05-11T17:00:10.899Z,19.23
2023-05-11T17:02:37.625Z,19.53
2023-05-11T17:05:05.586Z,18.98
2023-05-11T17:07:32.118Z,18.73
2023-05-11T17:09:58.760Z,19.24
2023-05-11T17:12:25.283Z,19.57
2023-05-11T17:14:51.900Z,19.32
2023-05-11T17:17:18.423Z,18.64
2023-05-11T17:19:47.510Z,18.26
2023-05-11T17:22:14.042Z,18.77
2023-05-11T17:24:41.111Z,18.19
2023-05-11T17:27:07.704Z,18.51
2023-05-11T17:29:34.525Z,18.83
2023-05-11T17:32:01.213Z,19.24
2023-05-11T17:34:28.807Z,19.25
2023-05-11T17:36:55.862Z,19.33
2023-05-11T17:39:22.536Z,19.15
2023-05-11T17:41:49.073Z,19.25
2023-05-11T17:44:15.722Z,19.36
2023-05-11T17:46:42.276Z,19.18
2023-05-11T17:49:09.475Z,19.33
2023-05-11T17:51:36.417Z,19.22
2023-05-11T17:54:03.135Z,19.49
2023-05-11T17:56:29.691Z,19.34
2023-05-11T17:58:56.296Z,19.29
2023-05-11T18:01:23.043Z,18.96
2023-05-11T18:03:50.301Z,19.15
2023-05-11T18:06:17.176Z,19.14
2023-05-11T18:08:44.026Z,19.19
2023-05-11T18:11:15.510Z,19.35
2023-05-11T18:13:42.222Z,19.24
2023-05-11T18:16:09.137Z,18.92
2023-05-11T18:18:37.209Z,18.91
2023-05-11T18:21:08.416Z,18.95
2023-05-11T18:23:35.011Z,19.43
2023-05-11T18:26:01.590Z,19.35
2023-05-11T18:28:28.249Z,18.41
2023-05-11T18:30:56.953Z,18.30
2023-05-11T18:33:23.612Z,18.63
2023-05-11T18:35:51.085Z,18.72
2023-05-11T18:38:17.948Z,19.23
2023-05-11T18:40:47.263Z,19.36
2023-05-11T18:43:14.135Z,19.38
2023-05-11T18:45:41.235Z,18.87
2023-05-11T18:48:08.593Z,18.60
2023-05-11T18:50:36.176Z,19.03
2023-05-11T18:53:02.856Z,18.98
2023-05-11T18:55:31.198Z,18.63
2023-05-11T18:58:02.250Z,18.53
2023-05-11T19:00:31.238Z,18.63
2023-05-11T19:02:58.088Z,18.62
2023-05-11T19:05:24.756Z,18.39
2023-05-11T19:07:52.678Z,18.18
2023-05-11T19:10:19.749Z,18.50
2023-05-11T19:12:47.828Z,18.70
2023-05-11T19:15:14.433Z,18.77
2023-05-11T19:17:41.072Z,18.85
2023-05-11T19:20:09.319Z,18.67
2023-05-11T19:22:36.076Z,18.34
2023-05-11T19:25:04.996Z,18.03
2023-05-11T19:27:31.700Z,18.27
2023-05-11T19:29:58.637Z,18.70
2023-05-11T19:32:25.638Z,18.44
2023-05-11T19:34:52.343Z,18.70
2023-05-11T19:37:18.960Z,18.27
2023-05-11T19:39:45.558Z,18.14
2023-05-11T19:42:12.178Z,18.40
2023-05-11T19:44:43.452Z,18.37
2023-05-11T19:47:10.677Z,18.39
2023-05-11T19:49:37.344Z,17.58
2023-05-11T19:52:04.243Z,17.86
2023-05-11T19:54:30.826Z,17.54
2023-05-11T19:56:57.611Z,17.60
2023-05-11T19:59:27.435Z,17.63
2023-05-11T20:01:54.127Z,17.60
2023-05-11T20:04:20.781Z,17.75
2023-05-11T20:06:47.376Z,17.65
2023-05-11T20:09:13.969Z,17.82
2023-05-11T20:11:40.540Z,17.96
2023-05-11T20:14:07.141Z,17.94
2023-05-11T20:16:33.805Z,17.93
2023-05-11T20:19:00.653Z,17.92
2023-05-11T20:21:28.178Z,17.84
2023-05-11T20:23:54.805Z,17.76
2023-05-11T20:26:21.429Z,17.84
2023-05-11T20:28:47.987Z,17.75
2023-05-11T20:31:14.548Z,17.83
2023-05-11T20:36:14.030Z,17.55
2023-05-11T20:38:40.596Z,17.72
2023-05-11T20:41:07.703Z,16.93
2023-05-11T20:43:36.667Z,16.71
2023-05-11T20:46:03.942Z,16.53
2023-05-11T20:48:39.857Z,16.38
2023-05-11T20:51:08.056Z,16.94
2023-05-11T20:53:34.726Z,16.73
2023-05-11T20:56:03.472Z,17.08
2023-05-11T20:58:33.356Z,16.95
2023-05-11T21:01:00.027Z,16.62
2023-05-11T21:03:29.909Z,16.51
2023-05-11T21:05:56.631Z,16.48
2023-05-11T21:08:23.220Z,16.34
2023-05-11T21:10:49.821Z,16.57
2023-05-11T21:13:16.393Z,16.48
2023-05-11T21:15:43.029Z,16.12
2023-05-11T21:18:09.712Z,16.17
2023-05-11T21:20:36.452Z,16.03
2023-05-11T21:23:03.826Z,15.60
2023-05-11T21:25:30.477Z,15.53
2023-05-11T21:27:57.165Z,15.41
2023-05-11T21:30:23.754Z,15.43
2023-05-11T21:32:52.712Z,15.91
2023-05-11T21:35:19.370Z,16.20
2023-05-11T21:37:49.537Z,16.50
2023-05-11T21:42:43.549Z,16.38
2023-05-11T21:45:11.934Z,16.56
2023-05-11T21:47:40.823Z,16.36
2023-05-11T21:50:08.652Z,16.62
2023-05-11T21:52:35.425Z,16.41
2023-05-11T21:55:05.428Z,15.90
2023-05-11T21:57:32.024Z,15.79
2023-05-11T21:59:59.356Z,15.78
2023-05-11T22:02:27.393Z,16.12
2023-05-11T22:04:54.120Z,16.44
2023-05-11T22:07:23.224Z,16.32
2023-05-11T22:09:52.803Z,16.37
2023-05-11T22:12:19.814Z,15.98
2023-05-11T22:14:46.927Z,15.90
2023-05-11T22:17:20.858Z,16.02
2023-05-11T22:19:47.441Z,16.06
2023-05-11T22:22:14.021Z,16.23
2023-05-11T22:24:41.227Z,16.18
2023-05-11T22:27:09.982Z,16.18
2023-05-11T22:29:36.597Z,16.09
2023-05-11T22:32:05.853Z,16.07
2023-05-11T22:34:35.187Z,16.01
2023-05-11T22:37:04.018Z,15.63
2023-05-11T22:39:30.882Z,15.87
2023-05-11T22:41:57.667Z,15.72
2023-05-11T22:44:26.663Z,15.66
2023-05-11T22:46:55.218Z,15.58
2023-05-11T22:49:22.056Z,15.85
2023-05-11T22:51:48.651Z,16.09
2023-05-11T22:54:15.770Z,15.96
2023-05-11T22:56:43.096Z,15.78
2023-05-11T22:59:09.777Z,15.77
2023-05-11T23:01:42.691Z,15.44
2023-05-11T23:04:09.783Z,15.65
2023-05-11T23:06:41.426Z,15.92
2023-05-11T23:09:08.704Z,15.95
2023-05-11T23:11:35.186Z,16.07
2023-05-11T23:14:03.707Z,16.07
2023-05-11T23:16:30.592Z,16.44
2023-05-11T23:18:59.369Z,16.50
2023-05-11T23:21:29.082Z,16.47
2023-05-11T23:23:55.725Z,16.48
2023-05-11T23:26:22.278Z,16.61
2023-05-11T23:28:49.330Z,16.50
2023-05-11T23:31:16.001Z,16.56
2023-05-11T23:33:42.700Z,16.49
2023-05-11T23:36:09.668Z,16.35
2023-05-11T23:38:38.626Z,16.14
2023-05-11T23:41:05.250Z,15.84
2023-05-11T23:43:47.697Z,15.53
2023-05-11T23:46:14.448Z,15.50
2023-05-11T23:48:41.042Z,15.91
2023-05-11T23:51:07.673Z,15.77
2023-05-11T23:53:36.764Z,15.86
2023-05-11T23:56:03.479Z,15.98
2023-05-11T23:58:30.056Z,15.82
